Leland, IL (60531)

04:47 AM CDT on Ιούλιος 02, 2015 (GMT -0500)
Farm 34 | | Change Station
CLOSE
Current Station
Personal Weather Stations
Location: Earlville, IL
Elevation: 699 ft
Nearby Weather Stations
Active Advisory: Flood Warning

Elev 699 ft 41.59 °N, 88.85 °W | Updated 13 minutes ago

Αίθριος
Αίθριος
53.1 ° F
Feels Like 53.1 ° F
N
3.0
Ανεμος Μεταβλητός Ανεμος from ΒΒΑ
Gusts 8.0 mph

Σήμερα
High -- | Low -- ° F
--% Chance of Precip.
Yesterday
High -- | Low -- ° F
Precip. -- in
5:25 AM 8:33 PM
Πανσέληνος, 100% visible
Ατμοσφαιρική Πίεση 29.98 in
Ορατότητα 7.0 Μίλια
Σύννεφα Αίθριος
Σημείο Δρόσου 51 ° F
Υγρασία 93%
Rainfall 0.00 in
Snow Depth Not available.
Υπεριώδης ακτινοβολία (UV) 0 out of 12
Pollen 4.10 out of 12
Air Quality Not available.
Flu Activity Not available.
METAR KARR 020852Z AUTO 03006KT 7SM CLR 11/09 A2998 RMK AO2 SLP150 T01060089 58008

More Conditions Fewer Conditions

Ατμοσφαιρική Πίεση 29.98 in
Ορατότητα 7.0 Μίλια
Σύννεφα Αίθριος
Σημείο Δρόσου 51 ° F
Υγρασία 93%
Rainfall 0.00 in
Snow Depth Not available.
Υπεριώδης ακτινοβολία (UV) 0 out of 12
Pollen 4.10 out of 12
Air Quality Not available.
Flu Activity Not available.
METAR KARR 020852Z AUTO 03006KT 7SM CLR 11/09 A2998 RMK AO2 SLP150 T01060089 58008

More Conditions Fewer Conditions

10-Day Weather Forecast

×

Almanac

Αστρονομία

Jul. 02, 2015 Rise Set
Actual Time
Civil Twilight
Nautical Twilight
Astronomical Twilight
Moon
Length Of Visible Light
Διάρκεια ημέρας
Tomorrow will be .
, % of the Moon is Illuminated

Today's Extremes

State Highs State Lows

Community

WunderPhotos

Upload Photos

1,834,434 photos uploaded!

WunderBlogs® & News

Nearby

Air Quality

  Air Quality AQ Index Pollutant
Not available.

Snow Depth

Station Depth Elevation

Earthquake Activity

City Distance Mag. Time & Date
Minimum magnitude displayed is 2.5.

Coastal Water Temperatures

Τοποθεσία Θερμοκρασία

Stations

Nearby Weather Stations

Station Location Temp Δείκτης Ψυχρότητας Σημείο Δρόσου Υγρασία Ανεμος Precip. Elev Ενημερώθηκε Type
                   
Flood Warning
Statement as of 09:00 PM CDT on Ιούλιος 01, 2015

The Flood Warning continues for
the Illinois River at La Salle.
* Until further notice.
* At 845 PM Wednesday the stage was 27.8 feet.
* Flood stage is 20.0 feet.
* Moderate flooding is occurring and moderate flooding is forecast.
* Forecast... the river will continue to fall to a stage of 26.7 feet
by Friday morning.
* Impact... at 27.5 feet... Hennepin levee is overtopped at Road
crossing.


Lat... Lon 4137 8896 4135 8929 4126 8930 4128 8896



Rc